Bookmark and Share
Track history (hours):
 

Sarah Desgagnes

Last reported at 2014-Apr-24 16:03 UTC. Time now 2014-Apr-24 22:27 UTC.
Position N 45°32' W 073°32'.

Length 148 m; draft 7.8 m.

Type: Tanker. MMSI: 316012308.

NotesDate/timePositionNaut miles runAvg speedWind from/ knotsBaromVisibWave heightAir tempDewpointWater temp
2014-Apr-24 16:03N 45°32' W 073°32'0 0.1
2014-Apr-24 15:33N 45°32' W 073°32'146 5.8
2014-Apr-23 14:33N 44°08' W 076°20'  
2014-Apr-19 17:33N 42°37' W 079°46'160 7.8
2014-Apr-18 21:05N 43°58' W 076°36'714.1
2014-Apr-18 20:33N 44°02' W 076°28'1212.4
2014-Apr-18 19:33N 44°12' W 076°18'91 8.3
2014-Apr-18 08:33N 45°04' W 074°32'1010.2
2014-Apr-18 07:33N 45°10' W 074°21'1010.2
2014-Apr-18 06:33N 45°14' W 074°08'8 8.2
2014-Apr-18 05:33N 45°17' W 073°57'3 2.5
2014-Apr-18 04:33N 45°19' W 073°55'2 1.9
2014-Apr-18 03:33N 45°20' W 073°54'10 9.9
2014-Apr-18 02:33N 45°25' W 073°41'5 5.2
2014-Apr-18 01:33N 45°24' W 073°34'2 2.5
2014-Apr-18 00:33N 45°25' W 073°30'5 4.5
2014-Apr-17 23:33N 45°30' W 073°31'4 4.4
2014-Apr-17 22:33N 45°34' W 073°31'1 0.1
2014-Apr-17 11:29N 45°35' W 073°30'0 0.0
2014-Apr-17 08:05N 45°35' W 073°30'0 0.0
2014-Apr-16 22:24N 45°35' W 073°30'1 1.6
2014-Apr-16 21:33N 45°36' W 073°30'1 1.0
2014-Apr-16 20:21N 45°37' W 073°30'0 0.0
2014-Apr-16 19:17N 45°37' W 073°30'0 0.0
2014-Apr-16 18:15N 45°37' W 073°30'0 0.0
2014-Apr-16 17:27N 45°37' W 073°30'0 0.0
2014-Apr-16 16:32N 45°37' W 073°30'0 0.0
2014-Apr-16 15:29N 45°37' W 073°30'0 0.0
2014-Apr-16 14:32N 45°37' W 073°30'0 0.0
2014-Apr-16 13:29N 45°38' W 073°30'0 0.0
2014-Apr-16 12:32N 45°37' W 073°30'0 0.0
2014-Apr-16 11:32N 45°37' W 073°30'0 0.0
2014-Apr-16 10:32N 45°37' W 073°30'0 0.0
2014-Apr-16 09:32N 45°37' W 073°30'0 0.0
2014-Apr-16 08:32N 45°37' W 073°30'0 0.0
2014-Apr-16 07:29N 45°37' W 073°30'0 0.0
2014-Apr-16 06:32N 45°37' W 073°30'0 0.0
2014-Apr-16 05:32N 45°38' W 073°30'0 0.0
2014-Apr-16 04:32N 45°37' W 073°30'0 0.0
2014-Apr-16 03:29N 45°37' W 073°30'0 0.0
2014-Apr-16 02:32N 45°37' W 073°30'0 0.0
2014-Apr-16 01:29N 45°37' W 073°30'0 0.0
2014-Apr-16 00:23N 45°37' W 073°30'0 0.0
2014-Apr-15 23:32N 45°37' W 073°30'0 0.0
2014-Apr-15 22:32N 45°37' W 073°30'0 0.0
2014-Apr-15 21:33N 45°37' W 073°30'0 0.0
2014-Apr-15 20:30N 45°37' W 073°30'0 0.0
2014-Apr-15 19:33N 45°37' W 073°30'0 0.0
2014-Apr-15 18:33N 45°37' W 073°30'0 0.0
2014-Apr-15 17:33N 45°37' W 073°30'0 0.0
2014-Apr-15 16:33N 45°37' W 073°30'0 0.0
2014-Apr-15 15:30N 45°37' W 073°30'0 0.0
2014-Apr-15 14:30N 45°37' W 073°30'0 0.0
2014-Apr-15 12:33N 45°38' W 073°30'0 0.0
2014-Apr-15 11:33N 45°37' W 073°30'0 0.0
2014-Apr-15 10:30N 45°37' W 073°30'0 0.0
2014-Apr-15 09:30N 45°37' W 073°30'0 0.0
2014-Apr-15 08:33N 45°37' W 073°30'0 0.0
2014-Apr-15 07:33N 45°37' W 073°30'0 0.0
2014-Apr-15 06:33N 45°37' W 073°30'0 0.0
2014-Apr-15 05:33N 45°37' W 073°30'0 0.0
2014-Apr-15 03:30N 45°37' W 073°30'0 0.0
2014-Apr-15 01:33N 45°37' W 073°30'0 0.0
2014-Apr-14 22:33N 45°37' W 073°30'0 0.0
2014-Apr-14 21:33N 45°37' W 073°30'  

Dump ship's entire track history

sailing weather and tide predictions

Sarah Desgagnes — XJAB — position and weather